TimeCST,TemperatureF,Dew PointF,Humidity,Sea Level PressureIn,VisibilityMPH,Wind Direction,Wind SpeedMPH,Gust SpeedMPH,PrecipitationIn,Events,Conditions,WindDirDegrees,DateUTC
12:53 AM,23.0,19.0,85,30.25,10.0,SW,4.6,-,N/A,,Clear,220,2013-01-05 06:53:00
1:53 AM,24.1,19.0,81,30.29,10.0,SW,8.1,-,N/A,,Clear,230,2013-01-05 07:53:00
2:53 AM,21.9,18.0,85,30.30,10.0,SW,5.8,-,N/A,,Clear,220,2013-01-05 08:53:00
3:53 AM,21.0,18.0,88,30.29,10.0,SSW,4.6,-,N/A,,Clear,210,2013-01-05 09:53:00
4:53 AM,19.9,17.1,89,30.26,10.0,Calm,Calm,-,N/A,,Clear,0,2013-01-05 10:53:00
5:53 AM,19.9,17.1,89,30.27,9.0,South,4.6,-,N/A,,Clear,190,2013-01-05 11:53:00
6:53 AM,19.9,17.1,89,30.27,8.0,South,6.9,-,N/A,,Clear,180,2013-01-05 12:53:00
7:53 AM,21.0,17.1,85,30.27,6.0,SSW,8.1,-,N/A,,Clear,200,2013-01-05 13:53:00
8:53 AM,24.1,19.0,81,30.26,7.0,South,6.9,-,N/A,,Clear,190,2013-01-05 14:53:00
9:53 AM,28.0,21.9,78,30.25,8.0,South,8.1,-,N/A,,Clear,180,2013-01-05 15:53:00
10:53 AM,32.0,23.0,69,30.23,10.0,SSW,12.7,-,N/A,,Clear,210,2013-01-05 16:53:00
11:53 AM,33.1,24.1,70,30.18,10.0,South,8.1,-,N/A,,Partly Cloudy,190,2013-01-05 17:53:00
12:53 PM,33.1,25.0,72,30.15,10.0,SSW,11.5,-,N/A,,Clear,200,2013-01-05 18:53:00
1:53 PM,33.1,25.0,72,30.14,10.0,SSW,11.5,-,N/A,,Mostly Cloudy,210,2013-01-05 19:53:00
2:44 PM,33.8,26.6,75,30.11,1.5,SW,12.7,23.0,0.00,Snow,Light Snow,230,2013-01-05 20:44:00
2:53 PM,32.0,28.9,88,30.14,0.5,SW,15.0,-,0.00,Fog-Snow,Snow,220,2013-01-05 20:53:00
3:00 PM,32.0,30.2,93,30.11,0.8,SW,12.7,-,0.00,Snow,Light Snow,220,2013-01-05 21:00:00
3:03 PM,32.0,30.2,93,30.11,1.0,SSW,13.8,-,0.00,Snow,Light Snow,210,2013-01-05 21:03:00
3:11 PM,32.0,30.2,93,30.10,2.0,SW,12.7,-,0.00,Snow,Light Snow,220,2013-01-05 21:11:00
3:36 PM,32.0,30.2,93,30.10,1.2,SW,12.7,-,0.00,Snow,Light Snow,230,2013-01-05 21:36:00
3:53 PM,32.0,30.9,96,30.13,1.5,SW,10.4,-,0.00,Snow,Light Snow,220,2013-01-05 21:53:00
4:14 PM,32.0,30.2,93,30.09,2.5,SSW,8.1,-,0.00,,Overcast,200,2013-01-05 22:14:00
4:22 PM,32.0,30.2,93,30.09,3.0,SSW,11.5,-,0.00,,Overcast,210,2013-01-05 22:22:00
4:40 PM,32.0,30.2,93,30.08,2.0,SSW,9.2,-,0.00,Snow,Light Snow,210,2013-01-05 22:40:00
4:53 PM,32.0,30.9,96,30.12,4.0,SSW,8.1,-,0.00,,Overcast,200,2013-01-05 22:53:00
5:53 PM,33.1,32.0,96,30.10,3.0,SSW,9.2,-,N/A,,Overcast,200,2013-01-05 23:53:00
6:38 PM,33.8,32.0,93,30.07,5.0,South,9.2,-,N/A,,Overcast,190,2013-01-06 00:38:00
6:53 PM,33.1,32.0,96,30.11,6.0,South,10.4,-,N/A,,Overcast,190,2013-01-06 00:53:00
7:53 PM,33.1,30.9,92,30.10,6.0,SSW,16.1,-,N/A,,Overcast,210,2013-01-06 01:53:00
8:22 PM,33.8,30.2,87,30.06,7.0,SSW,16.1,21.9,N/A,,Overcast,200,2013-01-06 02:22:00
8:53 PM,33.1,30.0,89,30.07,9.0,SSW,15.0,21.9,N/A,,Overcast,210,2013-01-06 02:53:00
9:53 PM,34.0,30.0,85,30.06,4.0,SW,15.0,24.2,0.00,Snow,Light Snow,220,2013-01-06 03:53:00
10:23 PM,33.8,30.2,87,30.03,4.0,SW,12.7,-,0.00,Snow,Light Snow,220,2013-01-06 04:23:00
10:53 PM,34.0,30.9,89,30.04,7.0,SW,13.8,-,0.00,,Overcast,220,2013-01-06 04:53:00
11:53 PM,34.0,30.9,89,30.02,9.0,SSW,11.5,-,N/A,,Overcast,210,2013-01-06 05:53:00